Time;durP1;ratioP1;P1;durP2;ratioP2;P2;SDS_P1;SDS_P2;PMS_P1;PMS_P2;Temp;Humidity;BMP_temperature;BMP_pressure;BME280_temperature;BME280_humidity;BME280_pressure;Samples;Min_cycle;Max_cycle;Signal;HPM_P1;HPM_P2
2021/11/20 00:00:44;;;;;;;19.80;13.40;;;;;;;;;;10311298;28;20520;-60
2021/11/20 00:05:46;;;;;;;16.45;12.45;;;;;;;;;;10300506;28;20084;-60
2021/11/20 00:10:45;;;;;;;15.57;12.02;;;;;;;;;;10297834;28;20511;-60
2021/11/20 00:15:45;;;;;;;17.98;12.93;;;;;;;;;;10282080;28;20488;-59
2021/11/20 00:20:48;;;;;;;19.23;12.23;;;;;;;;;;10278065;28;20064;-59
2021/11/20 00:25:50;;;;;;;18.92;11.80;;;;;;;;;;10278649;28;20084;-61
2021/11/20 00:30:54;;;;;;;16.63;11.60;;;;;;;;;;10290843;28;20517;-60
2021/11/20 00:35:55;;;;;;;18.80;11.63;;;;;;;;;;10291750;28;20088;-60
2021/11/20 00:40:55;;;;;;;13.57;11.32;;;;;;;;;;10277629;28;20076;-60
2021/11/20 00:45:55;;;;;;;16.60;12.05;;;;;;;;;;10276698;28;20067;-61
2021/11/20 00:50:56;;;;;;;18.27;11.75;;;;;;;;;;10277063;28;20080;-61
2021/11/20 00:55:55;;;;;;;19.60;11.40;;;;;;;;;;10310394;28;20481;-60
2021/11/20 01:00:59;;;;;;;13.88;10.45;;;;;;;;;;10277767;28;20095;-60
2021/11/20 01:06:00;;;;;;;20.30;12.03;;;;;;;;;;10309387;28;20452;-61
2021/11/20 01:11:01;;;;;;;33.53;18.05;;;;;;;;;;10301434;28;20522;-61
2021/11/20 01:16:12;;;;;;;13.82;10.48;;;;;;;;;;10277313;28;20435;-61
2021/11/20 01:21:13;;;;;;;11.43;9.10;;;;;;;;;;10276186;28;20494;-60
2021/11/20 01:26:13;;;;;;;14.00;10.45;;;;;;;;;;10274886;28;20060;-61
2021/11/20 01:31:25;;;;;;;14.65;10.45;;;;;;;;;;10282964;28;20092;-60
2021/11/20 01:36:26;;;;;;;12.55;9.95;;;;;;;;;;10275333;28;20088;-60
2021/11/20 01:41:27;;;;;;;15.77;10.75;;;;;;;;;;10281440;28;20077;-60
2021/11/20 01:46:48;;;;;;;21.25;13.20;;;;;;;;;;10298057;28;20068;-60
2021/11/20 01:51:49;;;;;;;20.20;14.43;;;;;;;;;;10293476;28;20084;-60
2021/11/20 01:56:51;;;;;;;18.17;11.18;;;;;;;;;;10285728;28;20076;-61
2021/11/20 02:01:54;;;;;;;11.80;8.88;;;;;;;;;;10306369;28;20186;-60
2021/11/20 02:07:14;;;;;;;16.23;11.18;;;;;;;;;;10302606;28;20091;-60
2021/11/20 02:12:17;;;;;;;18.23;12.18;;;;;;;;;;10280703;28;20083;-59
2021/11/20 02:17:18;;;;;;;15.85;11.32;;;;;;;;;;10295784;28;20068;-59
2021/11/20 02:22:21;;;;;;;26.63;12.15;;;;;;;;;;10273273;28;20072;-59
2021/11/20 02:27:21;;;;;;;12.52;9.98;;;;;;;;;;10273962;28;20501;-59
2021/11/20 02:32:26;;;;;;;14.82;10.10;;;;;;;;;;10278621;28;20100;-59
2021/11/20 02:37:33;;;;;;;14.27;10.23;;;;;;;;;;10281574;28;20080;-59
2021/11/20 02:42:31;;;;;;;17.00;11.98;;;;;;;;;;10309249;28;20532;-60
2021/11/20 02:47:51;;;;;;;17.52;13.60;;;;;;;;;;10307583;28;20902;-60
2021/11/20 02:52:50;;;;;;;21.98;14.85;;;;;;;;;;10286545;28;20076;-60
2021/11/20 02:57:48;;;;;;;16.05;12.07;;;;;;;;;;10307032;28;20079;-60
2021/11/20 03:02:47;;;;;;;23.60;14.73;;;;;;;;;;10307208;28;20076;-60
2021/11/20 03:07:47;;;;;;;23.48;16.20;;;;;;;;;;10309357;28;20063;-59
2021/11/20 03:12:46;;;;;;;18.42;14.90;;;;;;;;;;10306805;28;20516;-60
2021/11/20 03:17:45;;;;;;;20.33;15.40;;;;;;;;;;10295248;28;20117;-60
2021/11/20 03:22:50;;;;;;;24.00;15.25;;;;;;;;;;10270088;28;20521;-60
2021/11/20 03:27:49;;;;;;;23.80;14.52;;;;;;;;;;10278486;28;20060;-60
2021/11/20 03:32:49;;;;;;;18.70;15.27;;;;;;;;;;10285801;28;20076;-60
2021/11/20 03:37:52;;;;;;;16.48;12.60;;;;;;;;;;10269897;28;20072;-60
2021/11/20 03:42:55;;;;;;;29.45;21.27;;;;;;;;;;10270509;28;20484;-60
2021/11/20 03:47:54;;;;;;;19.67;14.63;;;;;;;;;;10269454;28;20073;-60
2021/11/20 03:52:55;;;;;;;18.92;15.05;;;;;;;;;;10269809;28;20116;-60
2021/11/20 03:57:53;;;;;;;22.60;15.48;;;;;;;;;;10272006;28;20065;-59
2021/11/20 04:02:52;;;;;;;25.90;18.40;;;;;;;;;;10269144;28;20064;-59
2021/11/20 04:07:54;;;;;;;25.83;19.23;;;;;;;;;;10274937;28;20489;-60
2021/11/20 04:13:03;;;;;;;22.02;17.42;;;;;;;;;;10283546;28;20076;-60
2021/11/20 04:18:01;;;;;;;19.58;14.73;;;;;;;;;;10268955;28;20101;-61
2021/11/20 04:23:01;;;;;;;21.58;15.82;;;;;;;;;;10282363;28;20067;-60
2021/11/20 04:28:01;;;;;;;18.50;14.38;;;;;;;;;;10291132;28;20099;-60
2021/11/20 04:33:11;;;;;;;19.08;14.15;;;;;;;;;;10270041;28;20073;-60
2021/11/20 04:38:11;;;;;;;15.85;13.82;;;;;;;;;;10276498;28;20071;-61
2021/11/20 04:43:10;;;;;;;24.73;17.50;;;;;;;;;;10275863;28;20072;-60
2021/11/20 04:48:10;;;;;;;25.58;17.75;;;;;;;;;;10289619;28;20068;-60
2021/11/20 04:53:19;;;;;;;21.50;15.23;;;;;;;;;;10289236;28;20077;-60
2021/11/20 04:58:17;;;;;;;17.15;14.63;;;;;;;;;;10290727;28;20084;-60
2021/11/20 05:03:16;;;;;;;17.67;14.23;;;;;;;;;;10312010;28;20079;-60
2021/11/20 05:08:15;;;;;;;20.13;14.05;;;;;;;;;;10295150;28;20072;-59
2021/11/20 05:13:17;;;;;;;19.60;14.73;;;;;;;;;;10284212;28;20087;-60
2021/11/20 05:18:16;;;;;;;23.67;16.85;;;;;;;;;;10288390;28;20077;-61
2021/11/20 05:23:36;;;;;;;22.05;15.68;;;;;;;;;;10287039;28;20087;-59
2021/11/20 05:28:37;;;;;;;23.38;17.15;;;;;;;;;;10273945;28;20084;-59
2021/11/20 05:33:36;;;;;;;21.27;15.75;;;;;;;;;;10288664;28;20095;-59
2021/11/20 05:38:35;;;;;;;18.67;13.25;;;;;;;;;;10306415;28;20076;-61
2021/11/20 05:43:34;;;;;;;19.20;16.33;;;;;;;;;;10309297;28;20076;-60
2021/11/20 05:48:40;;;;;;;17.80;15.48;;;;;;;;;;10290778;28;20087;-60
2021/11/20 05:53:39;;;;;;;17.42;14.32;;;;;;;;;;10272694;28;20108;-61
2021/11/20 05:58:37;;;;;;;27.75;21.60;;;;;;;;;;10287896;28;20095;-61
2021/11/20 06:03:36;;;;;;;20.48;15.93;;;;;;;;;;10295034;28;20076;-60
2021/11/20 06:08:36;;;;;;;23.33;17.92;;;;;;;;;;10283853;28;20517;-59
2021/11/20 06:13:38;;;;;;;24.20;18.17;;;;;;;;;;10283004;28;20092;-60
2021/11/20 06:18:46;;;;;;;24.80;18.90;;;;;;;;;;10278150;28;20076;-59
2021/11/20 06:23:46;;;;;;;22.38;16.45;;;;;;;;;;10271608;28;20073;-60
2021/11/20 06:28:45;;;;;;;24.85;16.63;;;;;;;;;;10277335;28;20102;-60
2021/11/20 06:33:50;;;;;;;29.77;22.83;;;;;;;;;;10271606;28;20084;-61
2021/11/20 06:39:08;;;;;;;23.02;17.08;;;;;;;;;;10278894;28;20137;-61
2021/11/20 06:44:07;;;;;;;20.83;16.60;;;;;;;;;;10271081;28;20072;-60
2021/11/20 06:49:05;;;;;;;21.15;16.50;;;;;;;;;;10293531;28;20076;-60
2021/11/20 06:54:15;;;;;;;24.13;15.95;;;;;;;;;;10276713;28;20082;-60
2021/11/20 07:00:25;;;;;;;19.67;14.68;;;;;;;;;;10282993;28;20076;-60
2021/11/20 07:04:49;;;;;;;23.05;16.33;;;;;;;;;;10291191;28;20084;-60
2021/11/20 07:09:49;;;;;;;29.50;22.80;;;;;;;;;;10272830;28;20478;-60
2021/11/20 07:14:48;;;;;;;51.47;37.30;;;;;;;;;;10277380;28;20084;-60
2021/11/20 07:19:46;;;;;;;28.83;22.33;;;;;;;;;;10276247;28;20553;-59
2021/11/20 07:25:15;;;;;;;32.47;25.80;;;;;;;;;;10274676;28;20148;-60
2021/11/20 07:30:15;;;;;;;47.15;30.45;;;;;;;;;;10282620;28;20067;-60
2021/11/20 07:35:25;;;;;;;59.53;37.87;;;;;;;;;;10275677;28;20527;-60
2021/11/20 07:40:27;;;;;;;55.53;37.17;;;;;;;;;;10279864;28;20547;-60
2021/11/20 07:45:26;;;;;;;22.58;18.83;;;;;;;;;;10297571;28;20083;-61
2021/11/20 07:50:36;;;;;;;20.80;14.70;;;;;;;;;;10269395;28;20077;-60
2021/11/20 07:55:40;;;;;;;19.90;15.35;;;;;;;;;;10268797;28;20085;-61
2021/11/20 08:00:39;;;;;;;15.65;12.88;;;;;;;;;;10269801;28;20069;-61
2021/11/20 08:05:41;;;;;;;17.10;14.43;;;;;;;;;;10269056;28;20114;-60
2021/11/20 08:10:59;;;;;;;16.27;13.13;;;;;;;;;;10267029;28;20708;-60
2021/11/20 08:15:57;;;;;;;16.52;13.00;;;;;;;;;;10144845;28;20048;-60
2021/11/20 08:21:31;;;;;;;15.88;12.13;;;;;;;;;;10303802;28;20503;-60
2021/11/20 08:26:51;;;;;;;15.57;12.48;;;;;;;;;;10279696;28;20095;-59
2021/11/20 08:31:51;;;;;;;17.95;13.95;;;;;;;;;;10298360;28;20076;-60
2021/11/20 08:37:13;;;;;;;14.02;12.18;;;;;;;;;;10288087;28;20081;-59
2021/11/20 08:42:25;;;;;;;20.98;13.98;;;;;;;;;;10281135;28;20409;-59
2021/11/20 08:47:23;;;;;;;16.63;12.80;;;;;;;;;;10283019;28;20076;-59
2021/11/20 08:52:22;;;;;;;16.65;13.30;;;;;;;;;;10276939;28;20071;-60
2021/11/20 08:57:23;;;;;;;40.78;25.55;;;;;;;;;;10286382;28;20072;-61
2021/11/20 09:02:34;;;;;;;21.10;12.82;;;;;;;;;;10284380;28;20072;-60
2021/11/20 09:07:39;;;;;;;38.00;22.17;;;;;;;;;;10290615;28;20040;-59
2021/11/20 09:12:39;;;;;;;27.65;16.58;;;;;;;;;;10276473;28;20084;-62
2021/11/20 09:17:39;;;;;;;45.85;26.38;;;;;;;;;;10279561;28;20072;-59
2021/11/20 09:22:41;;;;;;;16.77;12.02;;;;;;;;;;10287430;28;20087;-60
2021/11/20 09:27:58;;;;;;;16.70;13.20;;;;;;;;;;10282781;28;20068;-59
2021/11/20 09:32:58;;;;;;;12.48;9.20;;;;;;;;;;10292111;28;20088;-60
2021/11/20 09:38:05;;;;;;;16.77;10.88;;;;;;;;;;10276476;28;20506;-60
2021/11/20 09:43:05;;;;;;;15.23;10.63;;;;;;;;;;10279993;28;20073;-61
2021/11/20 09:48:10;;;;;;;22.58;16.42;;;;;;;;;;10277714;28;20178;-60
2021/11/20 09:53:08;;;;;;;11.80;8.68;;;;;;;;;;10291930;28;20072;-59
2021/11/20 09:58:09;;;;;;;15.38;12.57;;;;;;;;;;10279875;28;20063;-60
2021/11/20 10:03:10;;;;;;;15.52;11.70;;;;;;;;;;10294819;28;20258;-59
2021/11/20 10:08:13;;;;;;;11.85;9.23;;;;;;;;;;10286403;28;20087;-60
2021/11/20 10:13:14;;;;;;;11.38;9.20;;;;;;;;;;10286159;28;20494;-59
2021/11/20 10:18:21;;;;;;;10.38;9.27;;;;;;;;;;10282312;28;20057;-59
2021/11/20 10:23:27;;;;;;;11.43;8.85;;;;;;;;;;10281636;28;20071;-59
2021/11/20 10:28:31;;;;;;;13.05;9.95;;;;;;;;;;10275074;28;20116;-59
2021/11/20 10:33:34;;;;;;;13.00;10.07;;;;;;;;;;10286749;28;20083;-59
2021/11/20 10:38:34;;;;;;;14.40;11.80;;;;;;;;;;10282688;28;20067;-57
2021/11/20 10:43:42;;;;;;;12.38;11.07;;;;;;;;;;10280214;28;20063;-60
2021/11/20 10:48:46;;;;;;;12.48;11.05;;;;;;;;;;10288215;28;20079;-59
2021/11/20 10:54:02;;;;;;;13.75;11.07;;;;;;;;;;10290905;28;20076;-59
2021/11/20 10:59:08;;;;;;;15.30;10.30;;;;;;;;;;10296359;28;20071;-58
2021/11/20 11:04:13;;;;;;;14.73;11.02;;;;;;;;;;10286973;28;20385;-58
2021/11/20 11:09:20;;;;;;;17.23;11.38;;;;;;;;;;10288845;28;20087;-59
2021/11/20 11:14:30;;;;;;;13.05;10.02;;;;;;;;;;10286842;28;20080;-59
2021/11/20 11:19:32;;;;;;;8.90;8.00;;;;;;;;;;10287832;28;20068;-59
2021/11/20 11:24:39;;;;;;;9.68;7.47;;;;;;;;;;10283580;28;20072;-60
2021/11/20 11:29:46;;;;;;;10.80;8.07;;;;;;;;;;10283685;28;20080;-59
2021/11/20 11:34:48;;;;;;;9.40;8.02;;;;;;;;;;10286425;28;20080;-59
2021/11/20 11:39:49;;;;;;;11.50;8.43;;;;;;;;;;10285209;28;20076;-61
2021/11/20 11:44:52;;;;;;;10.75;7.97;;;;;;;;;;10292627;28;20528;-59
2021/11/20 11:49:59;;;;;;;9.15;7.63;;;;;;;;;;10290531;28;20061;-59
2021/11/20 11:55:11;;;;;;;13.60;10.48;;;;;;;;;;10289133;28;20549;-60
2021/11/20 12:00:18;;;;;;;11.63;9.95;;;;;;;;;;10288467;28;20465;-59
2021/11/20 12:05:34;;;;;;;15.52;12.73;;;;;;;;;;10302820;28;20528;-59
2021/11/20 12:10:51;;;;;;;12.50;9.25;;;;;;;;;;10308502;28;20080;-60
2021/11/20 12:16:26;;;;;;;16.38;12.15;;;;;;;;;;10293681;28;20074;-60
2021/11/20 12:21:29;;;;;;;20.35;12.55;;;;;;;;;;10293371;28;20061;-59
2021/11/20 12:26:32;;;;;;;21.98;13.88;;;;;;;;;;10295729;28;20064;-60
2021/11/20 12:31:40;;;;;;;19.98;13.65;;;;;;;;;;10291970;28;20082;-60
2021/11/20 12:36:49;;;;;;;12.57;9.75;;;;;;;;;;10297734;28;20076;-60
2021/11/20 12:42:11;;;;;;;14.80;11.27;;;;;;;;;;10309065;28;20076;-59
2021/11/20 12:47:20;;;;;;;13.32;11.25;;;;;;;;;;10304552;28;20068;-59
2021/11/20 12:52:21;;;;;;;27.20;17.48;;;;;;;;;;10311845;28;20043;-60
2021/11/20 12:57:25;;;;;;;15.27;12.63;;;;;;;;;;10309530;28;20065;-59
2021/11/20 13:02:37;;;;;;;12.82;9.45;;;;;;;;;;10295288;28;20112;-59
2021/11/20 13:07:36;;;;;;;15.90;11.45;;;;;;;;;;10293740;28;20510;-58
2021/11/20 13:12:39;;;;;;;13.23;11.45;;;;;;;;;;10280440;28;20076;-59
2021/11/20 13:17:47;;;;;;;19.10;12.65;;;;;;;;;;10277724;28;20533;-58
2021/11/20 13:22:47;;;;;;;17.30;11.45;;;;;;;;;;10282362;28;20079;-58
2021/11/20 13:27:53;;;;;;;18.38;12.32;;;;;;;;;;10285273;28;20068;-59
2021/11/20 13:32:52;;;;;;;17.70;11.30;;;;;;;;;;10288805;28;20096;-59
2021/11/20 13:37:51;;;;;;;22.73;17.25;;;;;;;;;;10282095;28;20469;-64
2021/11/20 13:42:51;;;;;;;17.75;14.32;;;;;;;;;;10281423;28;20077;-64
2021/11/20 13:47:49;;;;;;;14.50;11.30;;;;;;;;;;10280950;28;20071;-64
2021/11/20 13:52:48;;;;;;;14.48;11.15;;;;;;;;;;10284240;28;20076;-65
2021/11/20 13:57:48;;;;;;;14.10;11.55;;;;;;;;;;10288904;28;20064;-65
2021/11/20 14:02:49;;;;;;;28.65;18.65;;;;;;;;;;10281560;28;20064;-65
2021/11/20 14:07:48;;;;;;;20.70;16.98;;;;;;;;;;10277797;28;20086;-65
2021/11/20 14:13:00;;;;;;;30.88;20.02;;;;;;;;;;10276072;28;20068;-65
2021/11/20 14:18:03;;;;;;;28.45;21.95;;;;;;;;;;10280177;28;20075;-65
2021/11/20 14:23:08;;;;;;;33.50;23.98;;;;;;;;;;10275879;28;20067;-65
2021/11/20 14:28:06;;;;;;;38.47;25.10;;;;;;;;;;10275531;28;20065;-64
2021/11/20 14:33:07;;;;;;;34.45;22.10;;;;;;;;;;10274309;28;20331;-64
2021/11/20 14:38:05;;;;;;;67.57;40.47;;;;;;;;;;10272585;28;20076;-65
2021/11/20 14:43:04;;;;;;;37.55;28.95;;;;;;;;;;10282301;28;20072;-66
2021/11/20 14:48:03;;;;;;;24.10;19.45;;;;;;;;;;10287162;28;20080;-66
2021/11/20 14:53:04;;;;;;;29.17;21.20;;;;;;;;;;10286918;28;20065;-64
2021/11/20 14:58:03;;;;;;;46.22;31.17;;;;;;;;;;10284629;28;20057;-66
2021/11/20 15:03:02;;;;;;;66.05;42.90;;;;;;;;;;10284405;28;20069;-65
2021/11/20 15:08:02;;;;;;;50.00;36.92;;;;;;;;;;10280281;28;20080;-65
2021/11/20 15:13:02;;;;;;;36.10;30.08;;;;;;;;;;10290999;28;20075;-66
2021/11/20 15:18:00;;;;;;;52.92;34.85;;;;;;;;;;10283742;28;20064;-66
2021/11/20 15:22:59;;;;;;;45.38;35.53;;;;;;;;;;10279379;28;20076;-67
2021/11/20 15:27:57;;;;;;;34.03;24.25;;;;;;;;;;10286463;28;20076;-66
2021/11/20 15:32:56;;;;;;;37.88;27.83;;;;;;;;;;10277789;28;20164;-65
2021/11/20 15:37:55;;;;;;;33.33;23.33;;;;;;;;;;10278732;28;20079;-66
2021/11/20 15:42:53;;;;;;;31.05;20.88;;;;;;;;;;10283049;28;20065;-65
2021/11/20 15:47:51;;;;;;;28.20;21.45;;;;;;;;;;10278858;28;20076;-66
2021/11/20 15:52:51;;;;;;;28.77;20.58;;;;;;;;;;10291461;28;20079;-66
2021/11/20 15:57:49;;;;;;;29.73;20.92;;;;;;;;;;10282303;28;20464;-66
2021/11/20 16:02:49;;;;;;;141.73;77.18;;;;;;;;;;10295609;28;20077;-66
2021/11/20 16:07:48;;;;;;;97.20;61.25;;;;;;;;;;10284492;28;20072;-66
2021/11/20 16:12:47;;;;;;;21.95;17.70;;;;;;;;;;10283740;28;20068;-66
2021/11/20 16:17:46;;;;;;;21.25;15.48;;;;;;;;;;10277859;28;20099;-64
2021/11/20 16:22:45;;;;;;;13.15;10.55;;;;;;;;;;10272671;28;20083;-64
2021/11/20 16:27:43;;;;;;;12.50;10.18;;;;;;;;;;10267793;28;20060;-64
2021/11/20 16:32:46;;;;;;;16.63;11.63;;;;;;;;;;10281666;28;20084;-64
2021/11/20 16:37:44;;;;;;;12.20;9.48;;;;;;;;;;10299695;28;20072;-64
2021/11/20 16:42:43;;;;;;;15.65;13.27;;;;;;;;;;10312211;28;20075;-64
2021/11/20 16:47:42;;;;;;;13.13;10.35;;;;;;;;;;10298592;28;20081;-64
2021/11/20 16:52:46;;;;;;;17.48;13.85;;;;;;;;;;10301056;28;20076;-64
2021/11/20 16:57:44;;;;;;;20.77;16.10;;;;;;;;;;10295996;28;20531;-63
2021/11/20 17:02:42;;;;;;;29.38;20.77;;;;;;;;;;10317721;28;20079;-64
2021/11/20 17:07:42;;;;;;;24.58;18.05;;;;;;;;;;10301171;28;20121;-64
2021/11/20 17:12:41;;;;;;;23.38;17.63;;;;;;;;;;10297238;28;20068;-63
2021/11/20 17:17:40;;;;;;;19.30;15.05;;;;;;;;;;10293298;28;20481;-64
2021/11/20 17:22:40;;;;;;;16.90;13.98;;;;;;;;;;10292094;28;20072;-64
2021/11/20 17:27:40;;;;;;;14.63;11.88;;;;;;;;;;10292916;28;20068;-64
2021/11/20 17:32:38;;;;;;;15.43;11.52;;;;;;;;;;10299434;28;20083;-64
2021/11/20 17:37:40;;;;;;;12.52;9.00;;;;;;;;;;10295193;28;20524;-65
2021/11/20 17:42:40;;;;;;;10.65;9.40;;;;;;;;;;10307072;28;20573;-65
2021/11/20 17:47:39;;;;;;;22.10;14.80;;;;;;;;;;10292077;28;20099;-65
2021/11/20 17:52:37;;;;;;;19.95;12.50;;;;;;;;;;10289823;28;20072;-65
2021/11/20 17:57:36;;;;;;;39.67;22.20;;;;;;;;;;10298325;28;20068;-66
2021/11/20 18:02:36;;;;;;;20.58;12.13;;;;;;;;;;10293017;28;20506;-65
2021/11/20 18:07:35;;;;;;;24.42;16.77;;;;;;;;;;10278137;28;20072;-65
2021/11/20 18:12:33;;;;;;;23.77;17.15;;;;;;;;;;10287035;28;20072;-65
2021/11/20 18:17:32;;;;;;;19.52;14.48;;;;;;;;;;10290251;28;20076;-65
2021/11/20 18:22:32;;;;;;;18.63;15.02;;;;;;;;;;10282392;28;20063;-65
2021/11/20 18:27:31;;;;;;;58.17;35.63;;;;;;;;;;10289233;28;20083;-65
2021/11/20 18:32:30;;;;;;;45.20;28.50;;;;;;;;;;10282632;28;20063;-65
2021/11/20 18:37:28;;;;;;;29.92;17.80;;;;;;;;;;10289312;28;20071;-65
2021/11/20 18:42:28;;;;;;;59.25;29.50;;;;;;;;;;10289339;28;20065;-65
2021/11/20 18:47:26;;;;;;;30.42;17.38;;;;;;;;;;10293018;28;20064;-65
2021/11/20 18:52:24;;;;;;;46.60;24.50;;;;;;;;;;10287374;28;20071;-65
2021/11/20 18:57:23;;;;;;;48.78;27.58;;;;;;;;;;10273151;28;20116;-65
2021/11/20 19:02:22;;;;;;;98.75;45.72;;;;;;;;;;10289631;28;20065;-65
2021/11/20 19:07:21;;;;;;;43.63;23.95;;;;;;;;;;10296651;28;20103;-65
2021/11/20 19:12:19;;;;;;;35.10;22.02;;;;;;;;;;10295041;28;20072;-65
2021/11/20 19:17:18;;;;;;;104.13;52.75;;;;;;;;;;10305684;28;20080;-65
2021/11/20 19:22:17;;;;;;;26.08;17.25;;;;;;;;;;10304815;28;20512;-65
2021/11/20 19:27:16;;;;;;;67.10;34.75;;;;;;;;;;10295562;28;20480;-65
2021/11/20 19:32:14;;;;;;;62.75;32.28;;;;;;;;;;10294380;28;20076;-65
2021/11/20 19:37:13;;;;;;;33.33;17.88;;;;;;;;;;10289199;28;20483;-65
2021/11/20 19:42:13;;;;;;;52.17;27.08;;;;;;;;;;10310364;28;20132;-65
2021/11/20 19:47:12;;;;;;;33.45;18.05;;;;;;;;;;10297650;28;20079;-65
2021/11/20 19:52:10;;;;;;;49.22;25.13;;;;;;;;;;10293067;28;20091;-65
2021/11/20 19:57:08;;;;;;;61.13;31.80;;;;;;;;;;10288402;28;20091;-65
2021/11/20 20:02:08;;;;;;;80.60;37.28;;;;;;;;;;10287380;28;20060;-65
2021/11/20 20:07:09;;;;;;;73.95;32.70;;;;;;;;;;10273900;28;20076;-65
2021/11/20 20:12:07;;;;;;;37.60;22.00;;;;;;;;;;10306867;28;20064;-65
2021/11/20 20:17:08;;;;;;;53.72;28.25;;;;;;;;;;10310048;28;20457;-65
2021/11/20 20:22:06;;;;;;;30.08;20.50;;;;;;;;;;10301140;28;20080;-65
2021/11/20 20:27:05;;;;;;;42.35;29.83;;;;;;;;;;10285868;28;20106;-65
2021/11/20 20:32:03;;;;;;;40.50;30.10;;;;;;;;;;10308105;28;20064;-65
2021/11/20 20:37:04;;;;;;;57.55;36.47;;;;;;;;;;10310294;28;20088;-65
2021/11/20 20:42:17;;;;;;;38.00;25.15;;;;;;;;;;10294049;28;20072;-64
2021/11/20 20:47:18;;;;;;;52.42;41.42;;;;;;;;;;10305989;28;20060;-65
2021/11/20 20:52:19;;;;;;;35.33;29.10;;;;;;;;;;10304792;28;20497;-65
2021/11/20 20:57:17;;;;;;;20.63;17.48;;;;;;;;;;10288549;28;20072;-64
2021/11/20 21:02:15;;;;;;;17.65;13.07;;;;;;;;;;10301851;28;20124;-64
2021/11/20 21:07:14;;;;;;;17.15;12.95;;;;;;;;;;10305018;28;20071;-65
2021/11/20 21:12:13;;;;;;;22.83;15.05;;;;;;;;;;10295660;28;20069;-65
2021/11/20 21:17:13;;;;;;;27.77;19.90;;;;;;;;;;10279462;28;20070;-65
2021/11/20 21:22:14;;;;;;;70.35;34.80;;;;;;;;;;10313337;28;20419;-65
2021/11/20 21:27:16;;;;;;;164.98;75.05;;;;;;;;;;10309996;28;20071;-64
2021/11/20 21:32:15;;;;;;;20.77;16.65;;;;;;;;;;10302194;28;20068;-65
2021/11/20 21:37:14;;;;;;;14.85;11.70;;;;;;;;;;10292012;28;20084;-65
2021/11/20 21:42:14;;;;;;;15.50;11.98;;;;;;;;;;10290652;28;20060;-64
2021/11/20 21:47:17;;;;;;;12.55;11.30;;;;;;;;;;10303621;28;20072;-65
2021/11/20 21:52:16;;;;;;;10.50;9.20;;;;;;;;;;10307270;28;20075;-64
2021/11/20 21:57:14;;;;;;;16.17;13.55;;;;;;;;;;10293650;28;20071;-65
2021/11/20 22:02:15;;;;;;;28.70;20.63;;;;;;;;;;10292261;28;20064;-65
2021/11/20 22:07:16;;;;;;;70.05;31.20;;;;;;;;;;10293239;28;20279;-64
2021/11/20 22:12:15;;;;;;;53.35;27.27;;;;;;;;;;10317081;28;20075;-64
2021/11/20 22:17:13;;;;;;;10.50;9.40;;;;;;;;;;10306782;28;20073;-64
2021/11/20 22:22:12;;;;;;;10.85;9.77;;;;;;;;;;10293174;28;20516;-64
2021/11/20 22:27:14;;;;;;;10.88;8.45;;;;;;;;;;10295557;28;20079;-64
2021/11/20 22:32:14;;;;;;;11.57;9.85;;;;;;;;;;10314308;28;20071;-64
2021/11/20 22:37:15;;;;;;;11.40;8.93;;;;;;;;;;10286070;28;20073;-64
2021/11/20 22:42:14;;;;;;;11.45;9.25;;;;;;;;;;10296347;28;20083;-65
2021/11/20 22:47:12;;;;;;;13.73;11.75;;;;;;;;;;10295571;28;20064;-64
2021/11/20 22:52:11;;;;;;;13.52;11.25;;;;;;;;;;10303359;28;20067;-64
2021/11/20 22:57:09;;;;;;;15.32;12.27;;;;;;;;;;10303095;28;20524;-63
2021/11/20 23:02:09;;;;;;;18.17;12.93;;;;;;;;;;10291619;28;20071;-62
2021/11/20 23:07:09;;;;;;;16.92;11.77;;;;;;;;;;10296682;28;20068;-64
2021/11/20 23:12:07;;;;;;;16.38;13.73;;;;;;;;;;10311999;28;20060;-64
2021/11/20 23:17:05;;;;;;;19.02;13.20;;;;;;;;;;10292671;28;20444;-65
2021/11/20 23:22:07;;;;;;;14.10;12.63;;;;;;;;;;10297424;28;20071;-64
2021/11/20 23:27:05;;;;;;;19.42;14.45;;;;;;;;;;10309915;28;20088;-64
2021/11/20 23:32:04;;;;;;;65.30;51.78;;;;;;;;;;10310991;28;20064;-64
2021/11/20 23:37:05;;;;;;;20.55;18.38;;;;;;;;;;10300542;28;21417;-66
2021/11/20 23:42:03;;;;;;;16.30;14.18;;;;;;;;;;10305743;28;20069;-65
2021/11/20 23:47:02;;;;;;;16.98;14.15;;;;;;;;;;10296180;28;20080;-64
2021/11/20 23:52:00;;;;;;;13.98;12.48;;;;;;;;;;10296678;28;20068;-65
2021/11/20 23:57:02;;;;;;;15.70;13.07;;;;;;;;;;10302647;28;20065;-64
